sensor_id;sensor_type;location;lat;lon;timestamp;temperature;humidity
79494;SHT31;68951;53.130;18.104;2023-04-03T00:01:04;2.61;62.50
79494;SHT31;68951;53.130;18.104;2023-04-03T00:03:31;2.67;62.50
79494;SHT31;68951;53.130;18.104;2023-04-03T00:05:58;2.71;62.51
79494;SHT31;68951;53.130;18.104;2023-04-03T00:08:25;2.77;62.50
79494;SHT31;68951;53.130;18.104;2023-04-03T00:10:52;2.77;62.50
79494;SHT31;68951;53.130;18.104;2023-04-03T00:13:19;2.80;62.49
79494;SHT31;68951;53.130;18.104;2023-04-03T00:15:46;2.84;62.50
79494;SHT31;68951;53.130;18.104;2023-04-03T00:18:13;2.85;62.48
79494;SHT31;68951;53.130;18.104;2023-04-03T00:20:41;2.82;62.42
79494;SHT31;68951;53.130;18.104;2023-04-03T00:23:08;2.83;62.40
79494;SHT31;68951;53.130;18.104;2023-04-03T00:25:35;2.83;62.40
79494;SHT31;68951;53.130;18.104;2023-04-03T00:28:03;2.84;62.40
79494;SHT31;68951;53.130;18.104;2023-04-03T00:30:31;2.85;62.40
79494;SHT31;68951;53.130;18.104;2023-04-03T00:32:58;2.87;62.34
79494;SHT31;68951;53.130;18.104;2023-04-03T00:35:27;2.85;62.30
79494;SHT31;68951;53.130;18.104;2023-04-03T00:37:55;2.84;62.30
79494;SHT31;68951;53.130;18.104;2023-04-03T00:40:23;2.83;62.30
79494;SHT31;68951;53.130;18.104;2023-04-03T00:42:56;2.83;62.24
79494;SHT31;68951;53.130;18.104;2023-04-03T00:45:30;2.80;62.23
79494;SHT31;68951;53.130;18.104;2023-04-03T00:48:07;2.76;62.20
79494;SHT31;68951;53.130;18.104;2023-04-03T00:50:39;2.73;62.20
79494;SHT31;68951;53.130;18.104;2023-04-03T00:53:10;2.68;62.20
79494;SHT31;68951;53.130;18.104;2023-04-03T00:55:44;2.67;62.20
79494;SHT31;68951;53.130;18.104;2023-04-03T00:58:15;2.63;62.20
79494;SHT31;68951;53.130;18.104;2023-04-03T01:00:46;2.57;62.19
79494;SHT31;68951;53.130;18.104;2023-04-03T01:03:22;2.51;62.20
79494;SHT31;68951;53.130;18.104;2023-04-03T01:05:50;2.44;62.20
79494;SHT31;68951;53.130;18.104;2023-04-03T01:08:17;2.38;62.23
79494;SHT31;68951;53.130;18.104;2023-04-03T01:10:44;2.34;62.26
79494;SHT31;68951;53.130;18.104;2023-04-03T01:13:27;2.31;62.30
79494;SHT31;68951;53.130;18.104;2023-04-03T01:16:00;2.28;62.32
79494;SHT31;68951;53.130;18.104;2023-04-03T01:18:29;2.26;62.38
79494;SHT31;68951;53.130;18.104;2023-04-03T01:21:06;2.24;62.39
79494;SHT31;68951;53.130;18.104;2023-04-03T01:26:32;2.25;62.43
79494;SHT31;68951;53.130;18.104;2023-04-03T01:29:00;2.25;62.46
79494;SHT31;68951;53.130;18.104;2023-04-03T01:31:29;2.25;62.51
79494;SHT31;68951;53.130;18.104;2023-04-03T01:34:20;2.26;62.50
79494;SHT31;68951;53.130;18.104;2023-04-03T01:36:47;2.24;62.50
79494;SHT31;68951;53.130;18.104;2023-04-03T01:39:14;2.22;62.57
79494;SHT31;68951;53.130;18.104;2023-04-03T01:41:41;2.19;62.60
79494;SHT31;68951;53.130;18.104;2023-04-03T01:44:08;2.16;62.61
79494;SHT31;68951;53.130;18.104;2023-04-03T01:46:35;2.13;62.67
79494;SHT31;68951;53.130;18.104;2023-04-03T01:49:04;2.12;62.70
79494;SHT31;68951;53.130;18.104;2023-04-03T01:51:31;2.11;62.74
79494;SHT31;68951;53.130;18.104;2023-04-03T01:53:59;2.08;62.80
79494;SHT31;68951;53.130;18.104;2023-04-03T01:56:26;2.02;62.85
79494;SHT31;68951;53.130;18.104;2023-04-03T01:58:53;1.99;62.90
79494;SHT31;68951;53.130;18.104;2023-04-03T02:01:19;1.96;62.98
79494;SHT31;68951;53.130;18.104;2023-04-03T02:03:47;1.89;63.04
79494;SHT31;68951;53.130;18.104;2023-04-03T02:06:14;1.87;63.10
79494;SHT31;68951;53.130;18.104;2023-04-03T02:08:41;1.87;63.19
79494;SHT31;68951;53.130;18.104;2023-04-03T02:11:08;1.85;63.21
79494;SHT31;68951;53.130;18.104;2023-04-03T02:13:34;1.91;63.29
79494;SHT31;68951;53.130;18.104;2023-04-03T02:16:11;1.97;63.34
79494;SHT31;68951;53.130;18.104;2023-04-03T02:18:39;2.00;63.40
79494;SHT31;68951;53.130;18.104;2023-04-03T02:21:06;2.00;63.40
79494;SHT31;68951;53.130;18.104;2023-04-03T02:23:33;2.01;63.49
79494;SHT31;68951;53.130;18.104;2023-04-03T02:26:07;2.00;63.50
79494;SHT31;68951;53.130;18.104;2023-04-03T02:28:37;2.00;63.54
79494;SHT31;68951;53.130;18.104;2023-04-03T02:31:05;2.00;63.60
79494;SHT31;68951;53.130;18.104;2023-04-03T02:33:35;1.97;63.60
79494;SHT31;68951;53.130;18.104;2023-04-03T02:36:04;1.95;63.66
79494;SHT31;68951;53.130;18.104;2023-04-03T02:38:32;1.91;63.70
79494;SHT31;68951;53.130;18.104;2023-04-03T02:41:09;1.88;63.76
79494;SHT31;68951;53.130;18.104;2023-04-03T02:43:38;1.89;63.80
79494;SHT31;68951;53.130;18.104;2023-04-03T02:46:06;1.88;63.90
79494;SHT31;68951;53.130;18.104;2023-04-03T02:48:33;1.88;63.90
79494;SHT31;68951;53.130;18.104;2023-04-03T02:51:01;1.87;63.99
79494;SHT31;68951;53.130;18.104;2023-04-03T02:53:28;1.85;64.00
79494;SHT31;68951;53.130;18.104;2023-04-03T02:55:55;1.85;64.09
79494;SHT31;68951;53.130;18.104;2023-04-03T02:58:22;1.88;64.10
79494;SHT31;68951;53.130;18.104;2023-04-03T03:00:49;1.92;64.18
79494;SHT31;68951;53.130;18.104;2023-04-03T03:03:15;1.93;64.20
79494;SHT31;68951;53.130;18.104;2023-04-03T03:05:42;1.95;64.22
79494;SHT31;68951;53.130;18.104;2023-04-03T03:08:09;2.00;64.25
79494;SHT31;68951;53.130;18.104;2023-04-03T03:10:36;2.02;64.25
79494;SHT31;68951;53.130;18.104;2023-04-03T03:13:03;2.02;64.29
79494;SHT31;68951;53.130;18.104;2023-04-03T03:15:30;1.99;64.28
79494;SHT31;68951;53.130;18.104;2023-04-03T03:17:57;1.98;64.30
79494;SHT31;68951;53.130;18.104;2023-04-03T03:20:24;1.96;64.30
79494;SHT31;68951;53.130;18.104;2023-04-03T03:22:50;1.95;64.33
79494;SHT31;68951;53.130;18.104;2023-04-03T03:25:17;1.94;64.34
79494;SHT31;68951;53.130;18.104;2023-04-03T03:27:44;1.94;64.39
79494;SHT31;68951;53.130;18.104;2023-04-03T03:30:12;1.92;64.40
79494;SHT31;68951;53.130;18.104;2023-04-03T03:32:39;1.88;64.40
79494;SHT31;68951;53.130;18.104;2023-04-03T03:35:06;1.88;64.40
79494;SHT31;68951;53.130;18.104;2023-04-03T03:37:33;1.87;64.40
79494;SHT31;68951;53.130;18.104;2023-04-03T03:40:00;1.85;64.43
79494;SHT31;68951;53.130;18.104;2023-04-03T03:42:27;1.81;64.48
79494;SHT31;68951;53.130;18.104;2023-04-03T03:44:54;1.83;64.50
79494;SHT31;68951;53.130;18.104;2023-04-03T03:47:21;1.86;64.50
79494;SHT31;68951;53.130;18.104;2023-04-03T03:49:48;1.86;64.50
79494;SHT31;68951;53.130;18.104;2023-04-03T03:52:15;1.88;64.50
79494;SHT31;68951;53.130;18.104;2023-04-03T03:54:42;1.91;64.50
79494;SHT31;68951;53.130;18.104;2023-04-03T03:57:09;1.90;64.50
79494;SHT31;68951;53.130;18.104;2023-04-03T03:59:36;1.90;64.50
79494;SHT31;68951;53.130;18.104;2023-04-03T04:02:02;1.86;64.50
79494;SHT31;68951;53.130;18.104;2023-04-03T04:04:29;1.83;64.49
79494;SHT31;68951;53.130;18.104;2023-04-03T04:06:56;1.80;64.50
79494;SHT31;68951;53.130;18.104;2023-04-03T04:09:23;1.78;64.50
79494;SHT31;68951;53.130;18.104;2023-04-03T04:11:50;1.74;64.50
79494;SHT31;68951;53.130;18.104;2023-04-03T04:14:17;1.70;64.52
79494;SHT31;68951;53.130;18.104;2023-04-03T04:16:44;1.66;64.55
79494;SHT31;68951;53.130;18.104;2023-04-03T04:19:11;1.66;64.59
79494;SHT31;68951;53.130;18.104;2023-04-03T04:21:38;1.62;64.60
79494;SHT31;68951;53.130;18.104;2023-04-03T04:24:06;1.61;64.60
79494;SHT31;68951;53.130;18.104;2023-04-03T04:26:33;1.61;64.66
79494;SHT31;68951;53.130;18.104;2023-04-03T04:29:01;1.62;64.69
79494;SHT31;68951;53.130;18.104;2023-04-03T04:31:27;1.62;64.69
79494;SHT31;68951;53.130;18.104;2023-04-03T04:33:54;1.63;64.70
79494;SHT31;68951;53.130;18.104;2023-04-03T04:36:21;1.66;64.70
79494;SHT31;68951;53.130;18.104;2023-04-03T04:38:48;1.73;64.70
79494;SHT31;68951;53.130;18.104;2023-04-03T04:41:22;1.79;64.70
79494;SHT31;68951;53.130;18.104;2023-04-03T04:43:49;1.85;64.71
79494;SHT31;68951;53.130;18.104;2023-04-03T04:46:18;1.89;64.70
79494;SHT31;68951;53.130;18.104;2023-04-03T04:48:45;1.91;64.63
79494;SHT31;68951;53.130;18.104;2023-04-03T04:51:12;1.93;64.60
79494;SHT31;68951;53.130;18.104;2023-04-03T04:53:39;1.96;64.60
79494;SHT31;68951;53.130;18.104;2023-04-03T04:56:06;2.04;64.60
79494;SHT31;68951;53.130;18.104;2023-04-03T04:58:33;2.10;64.60
79494;SHT31;68951;53.130;18.104;2023-04-03T05:03:30;2.17;64.55
79494;SHT31;68951;53.130;18.104;2023-04-03T05:05:57;2.18;64.50
79494;SHT31;68951;53.130;18.104;2023-04-03T05:08:25;2.18;64.46
79494;SHT31;68951;53.130;18.104;2023-04-03T05:10:52;2.19;64.40
79494;SHT31;68951;53.130;18.104;2023-04-03T05:13:20;2.20;64.39
79494;SHT31;68951;53.130;18.104;2023-04-03T05:15:47;2.18;64.30
79494;SHT31;68951;53.130;18.104;2023-04-03T05:18:14;2.23;64.30
79494;SHT31;68951;53.130;18.104;2023-04-03T05:20:41;2.24;64.22
79494;SHT31;68951;53.130;18.104;2023-04-03T05:23:10;2.27;64.20
79494;SHT31;68951;53.130;18.104;2023-04-03T05:25:38;2.32;64.17
79494;SHT31;68951;53.130;18.104;2023-04-03T05:28:05;2.38;64.08
79494;SHT31;68951;53.130;18.104;2023-04-03T05:30:33;2.42;64.00
79494;SHT31;68951;53.130;18.104;2023-04-03T05:33:00;2.47;63.95
79494;SHT31;68951;53.130;18.104;2023-04-03T05:35:27;2.50;63.87
79494;SHT31;68951;53.130;18.104;2023-04-03T05:37:54;2.54;63.79
79494;SHT31;68951;53.130;18.104;2023-04-03T05:40:21;2.61;63.71
79494;SHT31;68951;53.130;18.104;2023-04-03T05:42:48;2.63;63.62
79494;SHT31;68951;53.130;18.104;2023-04-03T05:45:15;2.64;63.52
79494;SHT31;68951;53.130;18.104;2023-04-03T05:47:42;2.66;63.44
79494;SHT31;68951;53.130;18.104;2023-04-03T05:50:09;2.67;63.38
79494;SHT31;68951;53.130;18.104;2023-04-03T05:52:37;2.70;63.30
79494;SHT31;68951;53.130;18.104;2023-04-03T05:55:08;2.74;63.23
79494;SHT31;68951;53.130;18.104;2023-04-03T05:57:36;2.81;63.15
79494;SHT31;68951;53.130;18.104;2023-04-03T06:00:07;2.90;63.06
79494;SHT31;68951;53.130;18.104;2023-04-03T06:02:38;2.96;62.99
79494;SHT31;68951;53.130;18.104;2023-04-03T06:05:06;3.03;62.86
79494;SHT31;68951;53.130;18.104;2023-04-03T06:07:34;3.14;62.76
79494;SHT31;68951;53.130;18.104;2023-04-03T06:10:02;3.23;62.64
79494;SHT31;68951;53.130;18.104;2023-04-03T06:12:30;3.34;62.56
79494;SHT31;68951;53.130;18.104;2023-04-03T06:14:57;3.41;62.42
79494;SHT31;68951;53.130;18.104;2023-04-03T06:17:24;3.45;62.25
79494;SHT31;68951;53.130;18.104;2023-04-03T06:19:53;3.52;62.14
79494;SHT31;68951;53.130;18.104;2023-04-03T06:22:20;3.56;62.01
79494;SHT31;68951;53.130;18.104;2023-04-03T06:24:47;3.61;61.86
79494;SHT31;68951;53.130;18.104;2023-04-03T06:27:14;3.57;61.67
79494;SHT31;68951;53.130;18.104;2023-04-03T06:29:42;3.55;61.52
79494;SHT31;68951;53.130;18.104;2023-04-03T06:32:10;3.58;61.38
79494;SHT31;68951;53.130;18.104;2023-04-03T06:34:37;3.54;61.23
79494;SHT31;68951;53.130;18.104;2023-04-03T06:37:04;3.55;61.10
79494;SHT31;68951;53.130;18.104;2023-04-03T06:39:31;3.60;60.98
79494;SHT31;68951;53.130;18.104;2023-04-03T06:41:58;3.66;60.86
79494;SHT31;68951;53.130;18.104;2023-04-03T06:44:25;3.73;60.75
79494;SHT31;68951;53.130;18.104;2023-04-03T06:46:52;3.69;60.53
79494;SHT31;68951;53.130;18.104;2023-04-03T06:49:20;3.63;60.39
79494;SHT31;68951;53.130;18.104;2023-04-03T06:51:47;3.55;60.21
79494;SHT31;68951;53.130;18.104;2023-04-03T06:54:14;3.56;60.10
79494;SHT31;68951;53.130;18.104;2023-04-03T06:56:41;3.62;60.05
79494;SHT31;68951;53.130;18.104;2023-04-03T06:59:09;3.68;60.05
79494;SHT31;68951;53.130;18.104;2023-04-03T07:01:39;3.70;59.93
79494;SHT31;68951;53.130;18.104;2023-04-03T07:04:07;3.74;59.81
79494;SHT31;68951;53.130;18.104;2023-04-03T07:06:34;3.77;59.69
79494;SHT31;68951;53.130;18.104;2023-04-03T07:09:01;3.79;59.55
79494;SHT31;68951;53.130;18.104;2023-04-03T07:11:29;3.84;59.49
79494;SHT31;68951;53.130;18.104;2023-04-03T07:13:55;3.97;59.42
79494;SHT31;68951;53.130;18.104;2023-04-03T07:16:22;4.14;59.37
79494;SHT31;68951;53.130;18.104;2023-04-03T07:18:49;4.25;59.19
79494;SHT31;68951;53.130;18.104;2023-04-03T07:21:17;4.31;59.03
79494;SHT31;68951;53.130;18.104;2023-04-03T07:23:44;4.42;58.97
79494;SHT31;68951;53.130;18.104;2023-04-03T07:26:11;5.32;60.09
79494;SHT31;68951;53.130;18.104;2023-04-03T07:28:38;7.88;63.45
79494;SHT31;68951;53.130;18.104;2023-04-03T07:31:07;8.49;62.41
79494;SHT31;68951;53.130;18.104;2023-04-03T07:33:39;7.76;60.37
79494;SHT31;68951;53.130;18.104;2023-04-03T07:36:08;7.15;58.93
79494;SHT31;68951;53.130;18.104;2023-04-03T07:38:37;6.84;57.88
79494;SHT31;68951;53.130;18.104;2023-04-03T07:41:04;6.63;56.88
79494;SHT31;68951;53.130;18.104;2023-04-03T07:43:31;6.49;56.13
79494;SHT31;68951;53.130;18.104;2023-04-03T07:45:58;6.28;55.21
79494;SHT31;68951;53.130;18.104;2023-04-03T07:48:25;6.13;54.61
79494;SHT31;68951;53.130;18.104;2023-04-03T07:50:53;5.92;53.99
79494;SHT31;68951;53.130;18.104;2023-04-03T07:53:20;5.69;53.42
79494;SHT31;68951;53.130;18.104;2023-04-03T07:55:47;5.60;53.22
79494;SHT31;68951;53.130;18.104;2023-04-03T07:58:17;5.62;53.12
79494;SHT31;68951;53.130;18.104;2023-04-03T08:00:45;5.59;52.68
79494;SHT31;68951;53.130;18.104;2023-04-03T08:03:13;5.56;52.24
79494;SHT31;68951;53.130;18.104;2023-04-03T08:05:46;5.55;51.89
79494;SHT31;68951;53.130;18.104;2023-04-03T08:08:16;5.61;51.75
79494;SHT31;68951;53.130;18.104;2023-04-03T08:10:53;5.59;51.53
79494;SHT31;68951;53.130;18.104;2023-04-03T08:13:21;5.52;51.16
79494;SHT31;68951;53.130;18.104;2023-04-03T08:15:48;5.52;50.89
79494;SHT31;68951;53.130;18.104;2023-04-03T08:18:15;5.48;50.46
79494;SHT31;68951;53.130;18.104;2023-04-03T08:20:43;5.45;50.20
79494;SHT31;68951;53.130;18.104;2023-04-03T08:23:11;5.49;50.10
79494;SHT31;68951;53.130;18.104;2023-04-03T08:25:38;5.52;49.87
79494;SHT31;68951;53.130;18.104;2023-04-03T08:28:07;5.56;49.59
79494;SHT31;68951;53.130;18.104;2023-04-03T08:30:35;5.52;49.13
79494;SHT31;68951;53.130;18.104;2023-04-03T08:33:02;5.46;48.75
79494;SHT31;68951;53.130;18.104;2023-04-03T08:35:30;5.52;48.54
79494;SHT31;68951;53.130;18.104;2023-04-03T08:37:57;5.59;48.33
79494;SHT31;68951;53.130;18.104;2023-04-03T08:40:24;5.64;48.07
79494;SHT31;68951;53.130;18.104;2023-04-03T08:45:55;5.96;47.87
79494;SHT31;68951;53.130;18.104;2023-04-03T08:48:41;6.05;47.51
79494;SHT31;68951;53.130;18.104;2023-04-03T08:51:14;6.11;47.13
79494;SHT31;68951;53.130;18.104;2023-04-03T08:56:29;6.31;46.83
79494;SHT31;68951;53.130;18.104;2023-04-03T08:59:00;6.36;46.60
79494;SHT31;68951;53.130;18.104;2023-04-03T09:01:34;6.39;46.41
79494;SHT31;68951;53.130;18.104;2023-04-03T09:04:11;6.46;46.23
79494;SHT31;68951;53.130;18.104;2023-04-03T09:06:44;6.70;46.23
79494;SHT31;68951;53.130;18.104;2023-04-03T09:09:51;6.95;46.15
79494;SHT31;68951;53.130;18.104;2023-04-03T09:12:15;7.23;45.97
79494;SHT31;68951;53.130;18.104;2023-04-03T09:23:10;8.34;45.62
79494;SHT31;68951;53.130;18.104;2023-04-03T09:26:14;8.50;45.19
79494;SHT31;68951;53.130;18.104;2023-04-03T09:28:47;8.47;44.86
79494;SHT31;68951;53.130;18.104;2023-04-03T09:31:17;8.72;44.69
79494;SHT31;68951;53.130;18.104;2023-04-03T09:33:49;9.05;44.51
79494;SHT31;68951;53.130;18.104;2023-04-03T09:39:16;9.71;43.97
79494;SHT31;68951;53.130;18.104;2023-04-03T09:42:11;9.93;43.75
79494;SHT31;68951;53.130;18.104;2023-04-03T09:45:26;9.76;43.48
79494;SHT31;68951;53.130;18.104;2023-04-03T09:48:05;9.43;43.17
79494;SHT31;68951;53.130;18.104;2023-04-03T09:50:35;8.98;42.92
79494;SHT31;68951;53.130;18.104;2023-04-03T09:53:07;8.66;42.83
79494;SHT31;68951;53.130;18.104;2023-04-03T09:55:56;8.33;42.79
79494;SHT31;68951;53.130;18.104;2023-04-03T10:00:57;8.11;42.77
79494;SHT31;68951;53.130;18.104;2023-04-03T10:03:28;8.30;42.80
79494;SHT31;68951;53.130;18.104;2023-04-03T10:05:59;8.29;42.67
79494;SHT31;68951;53.130;18.104;2023-04-03T10:08:33;8.26;42.57
79494;SHT31;68951;53.130;18.104;2023-04-03T10:11:05;8.24;42.41
79494;SHT31;68951;53.130;18.104;2023-04-03T10:13:52;8.65;42.46
79494;SHT31;68951;53.130;18.104;2023-04-03T10:16:27;8.69;42.36
79494;SHT31;68951;53.130;18.104;2023-04-03T10:19:17;8.57;42.22
79494;SHT31;68951;53.130;18.104;2023-04-03T10:24:48;8.15;42.09
79494;SHT31;68951;53.130;18.104;2023-04-03T10:41:16;9.02;41.51
79494;SHT31;68951;53.130;18.104;2023-04-03T10:47:16;10.54;41.11
79494;SHT31;68951;53.130;18.104;2023-04-03T10:53:41;10.09;40.21
79494;SHT31;68951;53.130;18.104;2023-04-03T10:58:49;9.24;40.00
79494;SHT31;68951;53.130;18.104;2023-04-03T11:01:26;9.04;39.93
79494;SHT31;68951;53.130;18.104;2023-04-03T11:04:02;9.15;39.96
79494;SHT31;68951;53.130;18.104;2023-04-03T11:09:37;9.13;39.90
79494;SHT31;68951;53.130;18.104;2023-04-03T11:12:12;8.91;39.90
79494;SHT31;68951;53.130;18.104;2023-04-03T11:14:50;9.15;39.99
79494;SHT31;68951;53.130;18.104;2023-04-03T11:25:06;9.98;39.67
79494;SHT31;68951;53.130;18.104;2023-04-03T11:28:01;10.08;39.58
79494;SHT31;68951;53.130;18.104;2023-04-03T11:30:46;9.87;39.33
79494;SHT31;68951;53.130;18.104;2023-04-03T11:36:05;10.11;38.97
79494;SHT31;68951;53.130;18.104;2023-04-03T11:38:38;11.01;39.03
79494;SHT31;68951;53.130;18.104;2023-04-03T11:41:11;11.70;38.74
79494;SHT31;68951;53.130;18.104;2023-04-03T11:43:41;11.54;38.24
79494;SHT31;68951;53.130;18.104;2023-04-03T11:46:53;11.11;37.90
79494;SHT31;68951;53.130;18.104;2023-04-03T12:16:21;10.74;37.18
79494;SHT31;68951;53.130;18.104;2023-04-03T12:19:04;10.38;37.22
79494;SHT31;68951;53.130;18.104;2023-04-03T12:22:11;9.80;37.27
79494;SHT31;68951;53.130;18.104;2023-04-03T12:24:49;9.37;37.30
79494;SHT31;68951;53.130;18.104;2023-04-03T12:27:29;9.18;37.29
79494;SHT31;68951;53.130;18.104;2023-04-03T12:41:53;11.37;36.66
79494;SHT31;68951;53.130;18.104;2023-04-03T12:47:28;10.20;36.64
79494;SHT31;68951;53.130;18.104;2023-04-03T12:50:03;9.76;36.87
79494;SHT31;68951;53.130;18.104;2023-04-03T12:52:47;9.68;37.15
79494;SHT31;68951;53.130;18.104;2023-04-03T12:55:39;9.54;37.10
79494;SHT31;68951;53.130;18.104;2023-04-03T12:58:16;10.27;37.23
79494;SHT31;68951;53.130;18.104;2023-04-03T13:03:51;9.94;36.69
79494;SHT31;68951;53.130;18.104;2023-04-03T13:09:22;9.81;37.00
79494;SHT31;68951;53.130;18.104;2023-04-03T13:12:02;9.87;37.01
79494;SHT31;68951;53.130;18.104;2023-04-03T13:14:37;9.95;37.08
79494;SHT31;68951;53.130;18.104;2023-04-03T13:17:12;9.78;37.03
79494;SHT31;68951;53.130;18.104;2023-04-03T13:19:42;10.62;37.13
79494;SHT31;68951;53.130;18.104;2023-04-03T13:22:29;11.23;37.03
79494;SHT31;68951;53.130;18.104;2023-04-03T13:25:16;11.08;36.77
79494;SHT31;68951;53.130;18.104;2023-04-03T13:27:46;10.90;36.80
79494;SHT31;68951;53.130;18.104;2023-04-03T13:30:19;10.62;36.86
79494;SHT31;68951;53.130;18.104;2023-04-03T13:32:48;10.31;36.78
79494;SHT31;68951;53.130;18.104;2023-04-03T13:35:26;10.03;36.68
79494;SHT31;68951;53.130;18.104;2023-04-03T13:38:03;9.77;36.80
79494;SHT31;68951;53.130;18.104;2023-04-03T13:40:57;9.86;37.01
79494;SHT31;68951;53.130;18.104;2023-04-03T13:43:30;10.61;37.05
79494;SHT31;68951;53.130;18.104;2023-04-03T13:46:35;11.01;37.06
79494;SHT31;68951;53.130;18.104;2023-04-03T13:48:55;10.53;37.18
79494;SHT31;68951;53.130;18.104;2023-04-03T13:51:27;10.06;37.35
79494;SHT31;68951;53.130;18.104;2023-04-03T13:53:57;9.70;37.54
79494;SHT31;68951;53.130;18.104;2023-04-03T13:56:42;9.46;37.85
79494;SHT31;68951;53.130;18.104;2023-04-03T14:01:43;9.17;38.28
79494;SHT31;68951;53.130;18.104;2023-04-03T14:04:25;9.13;38.48
79494;SHT31;68951;53.130;18.104;2023-04-03T14:06:56;9.17;38.69
79494;SHT31;68951;53.130;18.104;2023-04-03T14:09:25;9.31;38.81
79494;SHT31;68951;53.130;18.104;2023-04-03T14:12:04;10.08;38.89
79494;SHT31;68951;53.130;18.104;2023-04-03T14:14:38;10.97;38.85
79494;SHT31;68951;53.130;18.104;2023-04-03T14:17:14;10.88;38.54
79494;SHT31;68951;53.130;18.104;2023-04-03T14:19:45;10.41;38.14
79494;SHT31;68951;53.130;18.104;2023-04-03T14:22:17;10.10;37.99
79494;SHT31;68951;53.130;18.104;2023-04-03T14:24:56;9.77;38.00
79494;SHT31;68951;53.130;18.104;2023-04-03T14:27:26;9.39;38.13
79494;SHT31;68951;53.130;18.104;2023-04-03T14:30:05;9.04;38.33
79494;SHT31;68951;53.130;18.104;2023-04-03T14:32:38;8.77;38.55
79494;SHT31;68951;53.130;18.104;2023-04-03T14:35:06;8.67;38.73
79494;SHT31;68951;53.130;18.104;2023-04-03T14:37:34;8.91;38.86
79494;SHT31;68951;53.130;18.104;2023-04-03T14:40:02;9.13;38.89
79494;SHT31;68951;53.130;18.104;2023-04-03T14:42:33;9.13;38.82
79494;SHT31;68951;53.130;18.104;2023-04-03T14:45:04;9.04;38.84
79494;SHT31;68951;53.130;18.104;2023-04-03T14:47:37;9.26;38.90
79494;SHT31;68951;53.130;18.104;2023-04-03T14:50:21;9.89;38.94
79494;SHT31;68951;53.130;18.104;2023-04-03T14:52:53;10.49;38.76
79494;SHT31;68951;53.130;18.104;2023-04-03T14:55:31;10.94;38.39
79494;SHT31;68951;53.130;18.104;2023-04-03T14:57:58;11.05;37.97
79494;SHT31;68951;53.130;18.104;2023-04-03T15:00:25;10.77;37.51
79494;SHT31;68951;53.130;18.104;2023-04-03T15:02:52;10.26;37.30
79494;SHT31;68951;53.130;18.104;2023-04-03T15:05:19;9.86;37.30
79494;SHT31;68951;53.130;18.104;2023-04-03T15:07:53;9.66;37.36
79494;SHT31;68951;53.130;18.104;2023-04-03T15:10:24;9.54;37.46
79494;SHT31;68951;53.130;18.104;2023-04-03T15:12:56;9.71;37.63
79494;SHT31;68951;53.130;18.104;2023-04-03T15:15:24;9.91;37.68
79494;SHT31;68951;53.130;18.104;2023-04-03T15:17:56;9.88;37.70
79494;SHT31;68951;53.130;18.104;2023-04-03T15:20:25;9.82;37.71
79494;SHT31;68951;53.130;18.104;2023-04-03T15:22:54;9.70;37.73
79494;SHT31;68951;53.130;18.104;2023-04-03T15:25:23;9.39;37.74
79494;SHT31;68951;53.130;18.104;2023-04-03T15:27:55;9.06;37.83
79494;SHT31;68951;53.130;18.104;2023-04-03T15:30:23;8.83;37.96
79494;SHT31;68951;53.130;18.104;2023-04-03T15:32:51;8.66;38.11
79494;SHT31;68951;53.130;18.104;2023-04-03T15:35:19;8.51;38.11
79494;SHT31;68951;53.130;18.104;2023-04-03T15:37:46;8.42;38.09
79494;SHT31;68951;53.130;18.104;2023-04-03T15:40:14;8.18;38.06
79494;SHT31;68951;53.130;18.104;2023-04-03T15:42:41;7.96;38.10
79494;SHT31;68951;53.130;18.104;2023-04-03T15:45:09;7.80;38.18
79494;SHT31;68951;53.130;18.104;2023-04-03T15:47:36;7.73;38.30
79494;SHT31;68951;53.130;18.104;2023-04-03T15:50:04;7.66;38.40
79494;SHT31;68951;53.130;18.104;2023-04-03T15:52:34;7.55;38.55
79494;SHT31;68951;53.130;18.104;2023-04-03T15:55:01;7.38;38.69
79494;SHT31;68951;53.130;18.104;2023-04-03T15:57:29;7.18;38.85
79494;SHT31;68951;53.130;18.104;2023-04-03T15:59:56;7.01;38.98
79494;SHT31;68951;53.130;18.104;2023-04-03T16:02:23;6.82;39.10
79494;SHT31;68951;53.130;18.104;2023-04-03T16:04:54;6.66;39.21
79494;SHT31;68951;53.130;18.104;2023-04-03T16:07:21;6.55;39.38
79494;SHT31;68951;53.130;18.104;2023-04-03T16:09:48;6.52;39.54
79494;SHT31;68951;53.130;18.104;2023-04-03T16:12:15;6.44;39.64
79494;SHT31;68951;53.130;18.104;2023-04-03T16:14:42;6.36;39.69
79494;SHT31;68951;53.130;18.104;2023-04-03T16:17:09;6.34;39.73
79494;SHT31;68951;53.130;18.104;2023-04-03T16:19:36;6.33;39.82
79494;SHT31;68951;53.130;18.104;2023-04-03T16:22:03;6.32;39.91
79494;SHT31;68951;53.130;18.104;2023-04-03T16:24:30;6.28;39.99
79494;SHT31;68951;53.130;18.104;2023-04-03T16:26:58;6.25;40.04
79494;SHT31;68951;53.130;18.104;2023-04-03T16:29:25;6.23;40.15
79494;SHT31;68951;53.130;18.104;2023-04-03T16:31:52;6.20;40.27
79494;SHT31;68951;53.130;18.104;2023-04-03T16:34:19;6.11;40.56
79494;SHT31;68951;53.130;18.104;2023-04-03T16:36:46;5.90;41.13
79494;SHT31;68951;53.130;18.104;2023-04-03T16:39:13;5.75;41.50
79494;SHT31;68951;53.130;18.104;2023-04-03T16:41:40;5.63;41.75
79494;SHT31;68951;53.130;18.104;2023-04-03T16:44:07;5.52;41.93
79494;SHT31;68951;53.130;18.104;2023-04-03T16:46:34;5.45;42.04
79494;SHT31;68951;53.130;18.104;2023-04-03T16:49:01;5.39;42.14
79494;SHT31;68951;53.130;18.104;2023-04-03T16:51:28;5.27;42.31
79494;SHT31;68951;53.130;18.104;2023-04-03T16:53:55;5.18;42.46
79494;SHT31;68951;53.130;18.104;2023-04-03T16:56:22;5.08;42.70
79494;SHT31;68951;53.130;18.104;2023-04-03T16:58:49;5.03;42.89
79494;SHT31;68951;53.130;18.104;2023-04-03T17:01:17;4.99;43.11
79494;SHT31;68951;53.130;18.104;2023-04-03T17:03:46;4.97;43.31
79494;SHT31;68951;53.130;18.104;2023-04-03T17:06:18;4.93;43.49
79494;SHT31;68951;53.130;18.104;2023-04-03T17:08:48;4.86;43.68
79494;SHT31;68951;53.130;18.104;2023-04-03T17:11:17;4.81;43.90
79494;SHT31;68951;53.130;18.104;2023-04-03T17:13:46;4.76;44.06
79494;SHT31;68951;53.130;18.104;2023-04-03T17:16:14;4.70;44.28
79494;SHT31;68951;53.130;18.104;2023-04-03T17:18:42;4.66;44.48
79494;SHT31;68951;53.130;18.104;2023-04-03T17:21:10;4.61;44.68
79494;SHT31;68951;53.130;18.104;2023-04-03T17:23:37;4.58;44.87
79494;SHT31;68951;53.130;18.104;2023-04-03T17:26:07;4.55;45.05
79494;SHT31;68951;53.130;18.104;2023-04-03T17:28:34;4.51;45.22
79494;SHT31;68951;53.130;18.104;2023-04-03T17:31:02;4.50;45.44
79494;SHT31;68951;53.130;18.104;2023-04-03T17:33:29;4.52;45.72
79494;SHT31;68951;53.130;18.104;2023-04-03T17:35:57;4.52;46.00
79494;SHT31;68951;53.130;18.104;2023-04-03T17:38:27;4.50;46.31
79494;SHT31;68951;53.130;18.104;2023-04-03T17:40:56;4.52;46.59
79494;SHT31;68951;53.130;18.104;2023-04-03T17:43:24;4.56;46.87
79494;SHT31;68951;53.130;18.104;2023-04-03T17:45:52;4.58;47.07